Terminal Aerodrome Forecast
Issued by NWS Jackson, KY

Home | Current Version | Previous Version | Text Only | Print | Product List | Glossary On
Versions: 1 2 3 4 5 6 7 8 9 10 11 12 13 14 15 16 17 18 19
134
FTUS43 KJKL 230539
TAFLOZ
TAF
KLOZ 230539Z 2306/2406 11010KT P6SM VCSH OVC100
     FM230800 11010G20KT P6SM -SHRA OVC070
     FM231200 12013G21KT P6SM SHRA OVC070
     FM231800 11010G22KT P6SM VCSH SCT025 OVC045=

USA.gov is the U.S. government's official web portal to all federal, state and local government web resources and services.